Nashville, Tennessee
Traffic Map
Current Weather Conditions
Nashville, Tennessee
Broken Clouds
Broken Clouds
26°
Feels Like: 27°
Wind Chill: 26° Ceiling: 21000
Heat Index: 27° Visibility: 10mi
Dew Point: 18° Wind: 8mph
Humidity: 64% Direction: 170° (S)
Pressure: 30.08in Gusts: 0mph
Raw Report DataKBNA 292253Z 17007KT 10SM SCT150 BKN210 26/18 A3008 RMK AO2 SLP178 T02560183
Traffic Incident Summary
Active as of:
Severity:
Category:
InformationThere was an issue retrieving the traffic information for this location. Please try a different location or try again shortly.
Advertisements
Track Severe Weather on mobile